sensor_id;sensor_type;location;lat;lon;timestamp;pressure;altitude;pressure_sealevel;temperature;humidity
55077;BME280;40971;44.702;11.030;2022-08-03T00:01:17;101406.34;;;20.54;90.64
55077;BME280;40971;44.702;11.030;2022-08-03T00:03:43;101402.72;;;20.55;91.45
55077;BME280;40971;44.702;11.030;2022-08-03T00:06:08;101416.88;;;20.65;92.39
55077;BME280;40971;44.702;11.030;2022-08-03T00:08:34;101380.38;;;20.36;92.39
55077;BME280;40971;44.702;11.030;2022-08-03T00:11:00;101425.31;;;20.49;93.91
55077;BME280;40971;44.702;11.030;2022-08-03T00:13:25;101404.97;;;20.38;94.74
55077;BME280;40971;44.702;11.030;2022-08-03T00:15:51;101427.56;;;20.54;94.82
55077;BME280;40971;44.702;11.030;2022-08-03T00:18:17;101426.34;;;20.58;94.21
55077;BME280;40971;44.702;11.030;2022-08-03T00:20:43;101359.78;;;20.08;94.29
55077;BME280;40971;44.702;11.030;2022-08-03T00:23:09;101350.47;;;19.93;94.23
55077;BME280;40971;44.702;11.030;2022-08-03T00:25:35;101378.53;;;19.95;94.95
55077;BME280;40971;44.702;11.030;2022-08-03T00:28:02;101340.72;;;19.61;96.73
55077;BME280;40971;44.702;11.030;2022-08-03T00:30:28;101346.59;;;19.65;96.78
55077;BME280;40971;44.702;11.030;2022-08-03T00:32:54;101366.91;;;19.75;96.57
55077;BME280;40971;44.702;11.030;2022-08-03T00:35:19;101420.34;;;19.92;96.60
55077;BME280;40971;44.702;11.030;2022-08-03T00:37:45;101392.59;;;19.75;98.31
55077;BME280;40971;44.702;11.030;2022-08-03T00:40:12;101423.34;;;19.98;100.00
55077;BME280;40971;44.702;11.030;2022-08-03T00:42:51;101429.25;;;20.02;100.00
55077;BME280;40971;44.702;11.030;2022-08-03T00:45:23;101396.66;;;19.79;100.00
55077;BME280;40971;44.702;11.030;2022-08-03T00:47:49;101357.28;;;19.74;98.94
55077;BME280;40971;44.702;11.030;2022-08-03T00:50:15;101367.47;;;19.90;99.74
55077;BME280;40971;44.702;11.030;2022-08-03T00:52:41;101401.47;;;20.17;99.62
55077;BME280;40971;44.702;11.030;2022-08-03T00:55:08;101388.16;;;19.96;96.31
55077;BME280;40971;44.702;11.030;2022-08-03T00:57:34;101401.84;;;19.80;97.82
55077;BME280;40971;44.702;11.030;2022-08-03T00:59:59;101427.63;;;20.10;98.44
55077;BME280;40971;44.702;11.030;2022-08-03T01:02:26;101420.47;;;20.22;98.48
55077;BME280;40971;44.702;11.030;2022-08-03T01:04:52;101371.41;;;19.96;97.92
55077;BME280;40971;44.702;11.030;2022-08-03T01:07:31;101410.00;;;20.21;94.86
55077;BME280;40971;44.702;11.030;2022-08-03T01:10:05;101402.06;;;19.89;91.42
55077;BME280;40971;44.702;11.030;2022-08-03T01:12:47;101369.75;;;19.51;94.12
55077;BME280;40971;44.702;11.030;2022-08-03T01:15:24;101423.41;;;19.87;100.00
55077;BME280;40971;44.702;11.030;2022-08-03T01:18:37;101403.63;;;19.80;100.00
55077;BME280;40971;44.702;11.030;2022-08-03T01:21:26;101413.75;;;19.86;99.50
55077;BME280;40971;44.702;11.030;2022-08-03T01:24:19;101400.38;;;19.88;100.00
55077;BME280;40971;44.702;11.030;2022-08-03T01:27:10;101390.75;;;19.87;100.00
55077;BME280;40971;44.702;11.030;2022-08-03T01:30:03;101324.22;;;19.58;100.00
55077;BME280;40971;44.702;11.030;2022-08-03T01:32:45;101364.72;;;19.80;100.00
55077;BME280;40971;44.702;11.030;2022-08-03T01:35:20;101403.75;;;19.90;100.00
55077;BME280;40971;44.702;11.030;2022-08-03T01:37:53;101411.69;;;19.90;97.85
55077;BME280;40971;44.702;11.030;2022-08-03T01:40:21;101410.72;;;19.91;98.40
55077;BME280;40971;44.702;11.030;2022-08-03T01:42:49;101399.81;;;19.73;99.10
55077;BME280;40971;44.702;11.030;2022-08-03T01:45:17;101336.44;;;19.38;99.10
55077;BME280;40971;44.702;11.030;2022-08-03T01:47:45;101374.81;;;19.55;97.47
55077;BME280;40971;44.702;11.030;2022-08-03T01:50:12;101398.56;;;19.88;98.80
55077;BME280;40971;44.702;11.030;2022-08-03T01:52:40;101381.53;;;19.59;99.85
55077;BME280;40971;44.702;11.030;2022-08-03T01:55:07;101401.75;;;19.71;100.00
55077;BME280;40971;44.702;11.030;2022-08-03T01:57:34;101364.78;;;19.47;100.00
55077;BME280;40971;44.702;11.030;2022-08-03T02:00:04;101414.25;;;19.80;99.04
55077;BME280;40971;44.702;11.030;2022-08-03T02:02:31;101341.34;;;19.31;99.88
55077;BME280;40971;44.702;11.030;2022-08-03T02:04:59;101398.88;;;19.51;100.00
55077;BME280;40971;44.702;11.030;2022-08-03T02:07:25;101419.72;;;19.45;100.00
55077;BME280;40971;44.702;11.030;2022-08-03T02:09:52;101407.00;;;19.16;100.00
55077;BME280;40971;44.702;11.030;2022-08-03T02:12:19;101378.47;;;18.98;100.00
55077;BME280;40971;44.702;11.030;2022-08-03T02:14:46;101428.88;;;19.52;100.00
55077;BME280;40971;44.702;11.030;2022-08-03T02:17:13;101413.59;;;19.67;100.00
55077;BME280;40971;44.702;11.030;2022-08-03T02:19:40;101365.91;;;19.44;100.00
55077;BME280;40971;44.702;11.030;2022-08-03T02:22:09;101388.91;;;19.44;100.00
55077;BME280;40971;44.702;11.030;2022-08-03T02:24:35;101402.63;;;19.60;99.92
55077;BME280;40971;44.702;11.030;2022-08-03T02:27:03;101383.28;;;19.26;99.20
55077;BME280;40971;44.702;11.030;2022-08-03T02:29:32;101358.38;;;18.95;100.00
55077;BME280;40971;44.702;11.030;2022-08-03T02:31:59;101405.91;;;19.08;100.00
55077;BME280;40971;44.702;11.030;2022-08-03T02:34:30;101425.28;;;19.08;100.00
55077;BME280;40971;44.702;11.030;2022-08-03T02:36:58;101343.84;;;18.67;100.00
55077;BME280;40971;44.702;11.030;2022-08-03T02:39:30;101418.91;;;19.11;100.00
55077;BME280;40971;44.702;11.030;2022-08-03T02:41:58;101402.66;;;18.71;100.00
55077;BME280;40971;44.702;11.030;2022-08-03T02:44:29;101423.47;;;18.75;100.00
55077;BME280;40971;44.702;11.030;2022-08-03T02:47:07;101411.56;;;18.70;100.00
55077;BME280;40971;44.702;11.030;2022-08-03T02:49:34;101402.53;;;18.72;100.00
55077;BME280;40971;44.702;11.030;2022-08-03T02:52:01;101364.81;;;18.46;100.00
55077;BME280;40971;44.702;11.030;2022-08-03T02:54:29;101365.31;;;18.51;100.00
55077;BME280;40971;44.702;11.030;2022-08-03T02:56:56;101372.06;;;18.55;100.00
55077;BME280;40971;44.702;11.030;2022-08-03T02:59:23;101290.84;;;18.11;100.00
55077;BME280;40971;44.702;11.030;2022-08-03T03:01:52;101331.88;;;18.39;100.00
55077;BME280;40971;44.702;11.030;2022-08-03T03:04:18;101376.78;;;18.74;100.00
55077;BME280;40971;44.702;11.030;2022-08-03T03:06:44;101399.53;;;18.77;100.00
55077;BME280;40971;44.702;11.030;2022-08-03T03:09:10;101361.94;;;18.38;100.00
55077;BME280;40971;44.702;11.030;2022-08-03T03:11:37;101397.50;;;18.45;100.00
55077;BME280;40971;44.702;11.030;2022-08-03T03:14:03;101391.25;;;18.46;100.00
55077;BME280;40971;44.702;11.030;2022-08-03T03:16:30;101413.19;;;18.59;100.00
55077;BME280;40971;44.702;11.030;2022-08-03T03:18:57;101370.34;;;18.43;100.00
55077;BME280;40971;44.702;11.030;2022-08-03T03:21:24;101402.34;;;18.51;100.00
55077;BME280;40971;44.702;11.030;2022-08-03T03:23:51;101375.13;;;18.27;100.00
55077;BME280;40971;44.702;11.030;2022-08-03T03:26:17;101384.00;;;18.26;100.00
55077;BME280;40971;44.702;11.030;2022-08-03T03:28:43;101407.25;;;18.45;100.00
55077;BME280;40971;44.702;11.030;2022-08-03T03:31:10;101390.66;;;18.31;100.00
55077;BME280;40971;44.702;11.030;2022-08-03T03:33:36;101382.09;;;18.28;100.00
55077;BME280;40971;44.702;11.030;2022-08-03T03:36:03;101380.16;;;18.30;100.00
55077;BME280;40971;44.702;11.030;2022-08-03T03:38:29;101412.28;;;18.37;100.00
55077;BME280;40971;44.702;11.030;2022-08-03T03:40:55;101361.53;;;18.20;100.00
55077;BME280;40971;44.702;11.030;2022-08-03T03:43:22;101415.50;;;18.64;100.00
55077;BME280;40971;44.702;11.030;2022-08-03T03:45:48;101381.53;;;18.47;100.00
55077;BME280;40971;44.702;11.030;2022-08-03T03:48:14;101419.16;;;18.85;100.00
55077;BME280;40971;44.702;11.030;2022-08-03T03:50:43;101380.88;;;18.67;100.00
55077;BME280;40971;44.702;11.030;2022-08-03T03:53:10;101421.06;;;18.72;100.00
55077;BME280;40971;44.702;11.030;2022-08-03T03:55:36;101426.72;;;18.79;100.00
55077;BME280;40971;44.702;11.030;2022-08-03T03:58:03;101384.44;;;18.55;100.00
55077;BME280;40971;44.702;11.030;2022-08-03T04:00:29;101411.25;;;18.61;100.00
55077;BME280;40971;44.702;11.030;2022-08-03T04:02:55;101400.69;;;18.61;100.00
55077;BME280;40971;44.702;11.030;2022-08-03T04:05:20;101323.19;;;18.15;100.00
55077;BME280;40971;44.702;11.030;2022-08-03T04:08:06;101414.88;;;18.60;100.00
55077;BME280;40971;44.702;11.030;2022-08-03T04:11:27;101422.91;;;18.59;100.00
55077;BME280;40971;44.702;11.030;2022-08-03T04:13:55;101421.84;;;18.50;100.00
55077;BME280;40971;44.702;11.030;2022-08-03T04:16:27;101425.81;;;18.56;100.00
55077;BME280;40971;44.702;11.030;2022-08-03T04:19:00;101430.63;;;18.62;100.00
55077;BME280;40971;44.702;11.030;2022-08-03T04:21:27;101383.66;;;18.30;100.00
55077;BME280;40971;44.702;11.030;2022-08-03T04:23:58;101393.38;;;18.30;100.00
55077;BME280;40971;44.702;11.030;2022-08-03T04:26:26;101379.56;;;18.15;100.00
55077;BME280;40971;44.702;11.030;2022-08-03T04:28:53;101419.81;;;18.30;100.00
55077;BME280;40971;44.702;11.030;2022-08-03T04:31:22;101401.97;;;18.10;100.00
55077;BME280;40971;44.702;11.030;2022-08-03T04:33:51;101439.16;;;18.19;100.00
55077;BME280;40971;44.702;11.030;2022-08-03T04:36:22;101402.91;;;17.97;100.00
55077;BME280;40971;44.702;11.030;2022-08-03T04:38:57;101428.19;;;18.13;100.00
55077;BME280;40971;44.702;11.030;2022-08-03T04:41:25;101435.09;;;18.26;100.00
55077;BME280;40971;44.702;11.030;2022-08-03T04:43:53;101443.47;;;18.55;100.00
55077;BME280;40971;44.702;11.030;2022-08-03T04:46:21;101432.25;;;18.65;100.00
55077;BME280;40971;44.702;11.030;2022-08-03T04:48:48;101441.13;;;18.75;100.00
55077;BME280;40971;44.702;11.030;2022-08-03T04:51:14;101432.25;;;18.76;100.00
55077;BME280;40971;44.702;11.030;2022-08-03T04:53:41;101442.25;;;18.94;100.00
55077;BME280;40971;44.702;11.030;2022-08-03T04:56:07;101455.00;;;19.12;100.00
55077;BME280;40971;44.702;11.030;2022-08-03T04:58:33;101404.47;;;18.92;100.00
55077;BME280;40971;44.702;11.030;2022-08-03T05:00:58;101377.53;;;18.87;100.00
55077;BME280;40971;44.702;11.030;2022-08-03T05:03:23;101414.31;;;19.13;100.00
55077;BME280;40971;44.702;11.030;2022-08-03T05:05:50;101428.28;;;19.26;100.00
55077;BME280;40971;44.702;11.030;2022-08-03T05:08:16;101439.13;;;19.57;100.00
55077;BME280;40971;44.702;11.030;2022-08-03T05:10:41;101424.19;;;19.56;100.00
55077;BME280;40971;44.702;11.030;2022-08-03T05:13:07;101445.91;;;19.81;100.00
55077;BME280;40971;44.702;11.030;2022-08-03T05:15:36;101425.75;;;19.69;100.00
55077;BME280;40971;44.702;11.030;2022-08-03T05:18:01;101437.09;;;19.92;100.00
55077;BME280;40971;44.702;11.030;2022-08-03T05:20:27;101437.47;;;19.99;100.00
55077;BME280;40971;44.702;11.030;2022-08-03T05:22:52;101427.75;;;20.09;100.00
55077;BME280;40971;44.702;11.030;2022-08-03T05:25:18;101457.88;;;20.40;100.00
55077;BME280;40971;44.702;11.030;2022-08-03T05:27:43;101422.09;;;20.34;100.00
55077;BME280;40971;44.702;11.030;2022-08-03T05:30:09;101443.94;;;20.59;100.00
55077;BME280;40971;44.702;11.030;2022-08-03T05:32:35;101472.88;;;20.83;100.00
55077;BME280;40971;44.702;11.030;2022-08-03T05:35:00;101452.22;;;20.86;100.00
55077;BME280;40971;44.702;11.030;2022-08-03T05:37:25;101466.38;;;20.96;100.00
55077;BME280;40971;44.702;11.030;2022-08-03T05:39:51;101417.06;;;20.73;100.00
55077;BME280;40971;44.702;11.030;2022-08-03T05:42:16;101432.25;;;20.92;100.00
55077;BME280;40971;44.702;11.030;2022-08-03T05:44:42;101458.38;;;21.17;100.00
55077;BME280;40971;44.702;11.030;2022-08-03T05:47:07;101476.13;;;21.38;100.00
55077;BME280;40971;44.702;11.030;2022-08-03T05:49:33;101459.91;;;21.41;99.28
55077;BME280;40971;44.702;11.030;2022-08-03T05:51:59;101467.91;;;21.50;97.42
55077;BME280;40971;44.702;11.030;2022-08-03T05:54:24;101484.03;;;21.68;96.42
55077;BME280;40971;44.702;11.030;2022-08-03T05:56:49;101430.56;;;21.52;96.93
55077;BME280;40971;44.702;11.030;2022-08-03T05:59:15;101446.50;;;21.61;96.16
55077;BME280;40971;44.702;11.030;2022-08-03T06:01:40;101439.69;;;21.69;94.08
55077;BME280;40971;44.702;11.030;2022-08-03T06:04:06;101479.22;;;22.02;94.45
55077;BME280;40971;44.702;11.030;2022-08-03T06:06:31;101476.72;;;22.10;93.51
55077;BME280;40971;44.702;11.030;2022-08-03T06:08:57;101464.25;;;22.11;93.52
55077;BME280;40971;44.702;11.030;2022-08-03T06:11:22;101459.22;;;22.17;92.80
55077;BME280;40971;44.702;11.030;2022-08-03T06:13:48;101459.91;;;22.29;90.15
55077;BME280;40971;44.702;11.030;2022-08-03T06:16:14;101475.16;;;22.46;90.36
55077;BME280;40971;44.702;11.030;2022-08-03T06:18:39;101481.47;;;22.45;89.96
55077;BME280;40971;44.702;11.030;2022-08-03T06:21:05;101481.88;;;22.60;90.35
55077;BME280;40971;44.702;11.030;2022-08-03T06:23:30;101471.78;;;22.64;89.14
55077;BME280;40971;44.702;11.030;2022-08-03T06:25:56;101469.56;;;22.69;87.79
55077;BME280;40971;44.702;11.030;2022-08-03T06:28:21;101444.59;;;22.70;86.81
55077;BME280;40971;44.702;11.030;2022-08-03T06:30:47;101496.81;;;23.09;87.17
55077;BME280;40971;44.702;11.030;2022-08-03T06:33:12;101487.69;;;23.12;87.54
55077;BME280;40971;44.702;11.030;2022-08-03T06:35:38;101497.47;;;23.21;85.50
55077;BME280;40971;44.702;11.030;2022-08-03T06:38:03;101501.03;;;23.39;84.50
55077;BME280;40971;44.702;11.030;2022-08-03T06:40:29;101462.53;;;23.24;82.69
55077;BME280;40971;44.702;11.030;2022-08-03T06:42:59;101508.00;;;23.60;84.45
55077;BME280;40971;44.702;11.030;2022-08-03T06:45:25;101509.66;;;23.61;83.72
55077;BME280;40971;44.702;11.030;2022-08-03T06:48:06;101436.47;;;23.46;80.97
55077;BME280;40971;44.702;11.030;2022-08-03T06:50:34;101508.31;;;24.02;79.46
55077;BME280;40971;44.702;11.030;2022-08-03T06:53:00;101512.09;;;24.17;79.62
55077;BME280;40971;44.702;11.030;2022-08-03T06:55:26;101511.84;;;24.38;80.29
55077;BME280;40971;44.702;11.030;2022-08-03T06:57:52;101511.69;;;24.57;77.66
55077;BME280;40971;44.702;11.030;2022-08-03T07:00:18;101515.97;;;24.94;78.08
55077;BME280;40971;44.702;11.030;2022-08-03T07:02:44;101506.25;;;25.11;75.88
55077;BME280;40971;44.702;11.030;2022-08-03T07:05:10;101518.66;;;25.54;72.82
55077;BME280;40971;44.702;11.030;2022-08-03T07:07:36;101497.19;;;25.80;70.92
55077;BME280;40971;44.702;11.030;2022-08-03T07:10:03;101494.72;;;26.03;70.24
55077;BME280;40971;44.702;11.030;2022-08-03T07:12:29;101525.28;;;26.51;66.92
55077;BME280;40971;44.702;11.030;2022-08-03T07:14:56;101522.78;;;26.74;65.50
55077;BME280;40971;44.702;11.030;2022-08-03T07:17:21;101512.69;;;27.00;65.92
55077;BME280;40971;44.702;11.030;2022-08-03T07:19:47;101520.47;;;27.34;64.60
55077;BME280;40971;44.702;11.030;2022-08-03T07:22:13;101525.97;;;27.49;63.62
55077;BME280;40971;44.702;11.030;2022-08-03T07:24:38;101508.00;;;27.57;61.75
55077;BME280;40971;44.702;11.030;2022-08-03T07:27:06;101506.69;;;27.84;61.45
55077;BME280;40971;44.702;11.030;2022-08-03T07:29:33;101520.94;;;28.16;60.37
55077;BME280;40971;44.702;11.030;2022-08-03T07:31:58;101530.47;;;28.18;59.73
55077;BME280;40971;44.702;11.030;2022-08-03T07:34:24;101513.81;;;28.31;60.19
55077;BME280;40971;44.702;11.030;2022-08-03T07:36:49;101512.84;;;28.47;59.33
55077;BME280;40971;44.702;11.030;2022-08-03T07:39:15;101523.31;;;28.80;58.37
55077;BME280;40971;44.702;11.030;2022-08-03T07:41:40;101510.84;;;29.01;59.00
55077;BME280;40971;44.702;11.030;2022-08-03T07:44:06;101510.03;;;29.30;56.86
55077;BME280;40971;44.702;11.030;2022-08-03T07:46:32;101520.22;;;29.64;56.25
55077;BME280;40971;44.702;11.030;2022-08-03T07:48:57;101503.31;;;29.71;53.99
55077;BME280;40971;44.702;11.030;2022-08-03T07:51:23;101520.69;;;30.04;53.74
55077;BME280;40971;44.702;11.030;2022-08-03T07:53:48;101487.81;;;30.30;51.69
55077;BME280;40971;44.702;11.030;2022-08-03T07:56:14;101484.63;;;30.69;50.80
55077;BME280;40971;44.702;11.030;2022-08-03T07:58:41;101511.38;;;30.99;48.52
55077;BME280;40971;44.702;11.030;2022-08-03T08:01:06;101512.53;;;30.83;46.83
55077;BME280;40971;44.702;11.030;2022-08-03T08:03:32;101487.50;;;30.96;47.82
55077;BME280;40971;44.702;11.030;2022-08-03T08:05:57;101498.88;;;31.19;47.10
55077;BME280;40971;44.702;11.030;2022-08-03T08:08:23;101469.47;;;31.03;46.62
55077;BME280;40971;44.702;11.030;2022-08-03T08:10:48;101508.06;;;31.31;45.55
55077;BME280;40971;44.702;11.030;2022-08-03T08:13:14;101512.72;;;31.44;45.68
55077;BME280;40971;44.702;11.030;2022-08-03T08:15:39;101497.81;;;31.61;46.95
55077;BME280;40971;44.702;11.030;2022-08-03T08:18:05;101462.06;;;31.46;45.76
55077;BME280;40971;44.702;11.030;2022-08-03T08:20:33;101499.84;;;31.46;45.94
55077;BME280;40971;44.702;11.030;2022-08-03T08:23:00;101510.84;;;31.45;45.09
55077;BME280;40971;44.702;11.030;2022-08-03T08:25:26;101501.66;;;31.39;44.85
55077;BME280;40971;44.702;11.030;2022-08-03T08:27:52;101494.28;;;31.61;43.97
55077;BME280;40971;44.702;11.030;2022-08-03T08:30:19;101501.78;;;31.72;43.30
55077;BME280;40971;44.702;11.030;2022-08-03T08:32:46;101506.09;;;31.53;42.81
55077;BME280;40971;44.702;11.030;2022-08-03T08:35:12;101500.53;;;31.61;42.11
55077;BME280;40971;44.702;11.030;2022-08-03T08:37:38;101493.34;;;31.88;41.04
55077;BME280;40971;44.702;11.030;2022-08-03T08:40:06;101493.41;;;32.21;42.57
55077;BME280;40971;44.702;11.030;2022-08-03T08:42:32;101499.47;;;32.70;39.21
55077;BME280;40971;44.702;11.030;2022-08-03T08:44:59;101505.50;;;32.98;40.44
55077;BME280;40971;44.702;11.030;2022-08-03T08:47:25;101509.38;;;33.22;37.97
55077;BME280;40971;44.702;11.030;2022-08-03T08:49:54;101505.50;;;32.91;38.00
55077;BME280;40971;44.702;11.030;2022-08-03T08:52:24;101470.34;;;32.72;38.93
55077;BME280;40971;44.702;11.030;2022-08-03T08:55:04;101476.41;;;32.47;36.89
55077;BME280;40971;44.702;11.030;2022-08-03T08:57:33;101509.88;;;32.73;37.22
55077;BME280;40971;44.702;11.030;2022-08-03T09:00:00;101506.75;;;33.02;38.64
55077;BME280;40971;44.702;11.030;2022-08-03T09:02:28;101468.44;;;32.92;35.96
55077;BME280;40971;44.702;11.030;2022-08-03T09:04:55;101485.97;;;33.54;35.51
55077;BME280;40971;44.702;11.030;2022-08-03T09:07:20;101467.66;;;33.94;34.25
55077;BME280;40971;44.702;11.030;2022-08-03T09:09:46;101438.31;;;33.85;34.47
55077;BME280;40971;44.702;11.030;2022-08-03T09:12:12;101498.75;;;34.17;35.04
55077;BME280;40971;44.702;11.030;2022-08-03T09:14:38;101458.16;;;34.10;34.13
55077;BME280;40971;44.702;11.030;2022-08-03T09:17:03;101468.69;;;34.50;33.90
55077;BME280;40971;44.702;11.030;2022-08-03T09:19:31;101454.09;;;34.69;33.76
55077;BME280;40971;44.702;11.030;2022-08-03T09:22:11;101494.16;;;34.92;34.63
55077;BME280;40971;44.702;11.030;2022-08-03T09:24:52;101491.84;;;35.32;33.35
55077;BME280;40971;44.702;11.030;2022-08-03T09:27:19;101443.66;;;35.09;33.46
55077;BME280;40971;44.702;11.030;2022-08-03T09:29:49;101487.41;;;35.38;32.26
55077;BME280;40971;44.702;11.030;2022-08-03T09:32:19;101440.16;;;34.16;31.77
55077;BME280;40971;44.702;11.030;2022-08-03T09:34:46;101454.28;;;33.93;33.11
55077;BME280;40971;44.702;11.030;2022-08-03T09:37:13;101483.28;;;33.92;34.12
55077;BME280;40971;44.702;11.030;2022-08-03T09:39:40;101493.69;;;33.95;33.57
55077;BME280;40971;44.702;11.030;2022-08-03T09:42:07;101488.88;;;34.54;34.24
55077;BME280;40971;44.702;11.030;2022-08-03T09:44:47;101492.84;;;35.01;33.47
55077;BME280;40971;44.702;11.030;2022-08-03T09:47:15;101484.88;;;34.56;31.89
55077;BME280;40971;44.702;11.030;2022-08-03T09:49:42;101486.28;;;34.09;33.82
55077;BME280;40971;44.702;11.030;2022-08-03T09:52:20;101488.44;;;34.32;34.16
55077;BME280;40971;44.702;11.030;2022-08-03T09:54:53;101442.09;;;34.33;33.51
55077;BME280;40971;44.702;11.030;2022-08-03T09:57:21;101410.78;;;33.88;34.20
55077;BME280;40971;44.702;11.030;2022-08-03T09:59:47;101475.66;;;34.07;33.36
55077;BME280;40971;44.702;11.030;2022-08-03T10:02:26;101479.78;;;34.17;32.81
55077;BME280;40971;44.702;11.030;2022-08-03T10:04:52;101471.75;;;34.78;33.96
55077;BME280;40971;44.702;11.030;2022-08-03T10:07:20;101465.38;;;34.48;33.77
55077;BME280;40971;44.702;11.030;2022-08-03T10:09:53;101474.13;;;34.50;31.98
55077;BME280;40971;44.702;11.030;2022-08-03T10:12:19;101427.41;;;34.66;31.65
55077;BME280;40971;44.702;11.030;2022-08-03T10:14:46;101448.94;;;35.04;30.55
55077;BME280;40971;44.702;11.030;2022-08-03T10:17:11;101414.97;;;34.77;29.76
55077;BME280;40971;44.702;11.030;2022-08-03T10:19:37;101448.94;;;35.04;30.19
55077;BME280;40971;44.702;11.030;2022-08-03T10:22:12;101423.06;;;35.38;29.47
55077;BME280;40971;44.702;11.030;2022-08-03T10:24:39;101437.84;;;34.87;29.85
55077;BME280;40971;44.702;11.030;2022-08-03T10:27:06;101448.34;;;35.02;31.80
55077;BME280;40971;44.702;11.030;2022-08-03T10:29:37;101455.97;;;35.12;30.41
55077;BME280;40971;44.702;11.030;2022-08-03T10:32:04;101449.72;;;35.11;30.27
55077;BME280;40971;44.702;11.030;2022-08-03T10:34:33;101448.31;;;35.20;30.89
55077;BME280;40971;44.702;11.030;2022-08-03T10:37:08;101400.69;;;35.06;31.06
55077;BME280;40971;44.702;11.030;2022-08-03T10:39:34;101433.88;;;35.56;28.95
55077;BME280;40971;44.702;11.030;2022-08-03T10:42:01;101431.28;;;35.32;29.52
55077;BME280;40971;44.702;11.030;2022-08-03T10:44:32;101438.31;;;35.03;29.09
55077;BME280;40971;44.702;11.030;2022-08-03T10:47:02;101418.81;;;35.24;29.93
55077;BME280;40971;44.702;11.030;2022-08-03T10:49:28;101420.44;;;35.13;29.77
55077;BME280;40971;44.702;11.030;2022-08-03T10:51:54;101404.47;;;34.87;29.60
55077;BME280;40971;44.702;11.030;2022-08-03T10:54:49;101418.22;;;34.49;29.90
55077;BME280;40971;44.702;11.030;2022-08-03T10:57:46;101385.84;;;34.04;30.84
55077;BME280;40971;44.702;11.030;2022-08-03T11:00:17;101405.16;;;34.57;30.20
55077;BME280;40971;44.702;11.030;2022-08-03T11:03:08;101417.69;;;34.58;30.45
55077;BME280;40971;44.702;11.030;2022-08-03T11:05:39;101413.28;;;34.14;30.99
55077;BME280;40971;44.702;11.030;2022-08-03T11:10:49;101406.47;;;34.30;30.05
55077;BME280;40971;44.702;11.030;2022-08-03T11:13:18;101414.34;;;34.38;30.73
55077;BME280;40971;44.702;11.030;2022-08-03T11:15:46;101401.41;;;34.58;31.25
55077;BME280;40971;44.702;11.030;2022-08-03T11:18:13;101397.94;;;34.69;29.93
55077;BME280;40971;44.702;11.030;2022-08-03T11:20:53;101389.00;;;35.06;29.46
55077;BME280;40971;44.702;11.030;2022-08-03T11:23:43;101401.63;;;35.60;29.24
55077;BME280;40971;44.702;11.030;2022-08-03T11:26:15;101363.28;;;35.80;29.20
55077;BME280;40971;44.702;11.030;2022-08-03T11:28:43;101400.97;;;36.30;29.10
55077;BME280;40971;44.702;11.030;2022-08-03T11:34:22;101401.19;;;35.63;28.88
55077;BME280;40971;44.702;11.030;2022-08-03T11:37:20;101392.66;;;35.30;28.91
55077;BME280;40971;44.702;11.030;2022-08-03T11:39:47;101397.59;;;35.51;29.00
55077;BME280;40971;44.702;11.030;2022-08-03T11:44:52;101389.06;;;34.81;29.56
55077;BME280;40971;44.702;11.030;2022-08-03T11:47:22;101373.59;;;35.18;29.89
55077;BME280;40971;44.702;11.030;2022-08-03T11:49:49;101368.59;;;35.75;28.38
55077;BME280;40971;44.702;11.030;2022-08-03T11:52:16;101377.78;;;36.15;30.61
55077;BME280;40971;44.702;11.030;2022-08-03T11:54:42;101378.22;;;35.47;29.96
55077;BME280;40971;44.702;11.030;2022-08-03T11:57:08;101373.13;;;35.21;31.28
55077;BME280;40971;44.702;11.030;2022-08-03T11:59:35;101338.28;;;35.18;30.29
55077;BME280;40971;44.702;11.030;2022-08-03T12:02:05;101371.69;;;35.78;30.34
55077;BME280;40971;44.702;11.030;2022-08-03T12:04:31;101365.88;;;35.75;29.68
55077;BME280;40971;44.702;11.030;2022-08-03T12:07:13;101362.59;;;35.43;29.29
55077;BME280;40971;44.702;11.030;2022-08-03T12:09:38;101361.81;;;35.54;28.96
55077;BME280;40971;44.702;11.030;2022-08-03T12:12:06;101355.22;;;35.73;29.12
55077;BME280;40971;44.702;11.030;2022-08-03T12:14:31;101308.31;;;35.54;29.79
55077;BME280;40971;44.702;11.030;2022-08-03T12:16:57;101350.13;;;35.95;29.40
55077;BME280;40971;44.702;11.030;2022-08-03T12:19:22;101346.78;;;36.16;28.91
55077;BME280;40971;44.702;11.030;2022-08-03T12:21:48;101340.97;;;36.25;28.91
55077;BME280;40971;44.702;11.030;2022-08-03T12:24:14;101352.47;;;36.50;28.56
55077;BME280;40971;44.702;11.030;2022-08-03T12:26:48;101283.91;;;36.13;29.04
55077;BME280;40971;44.702;11.030;2022-08-03T12:29:18;101344.72;;;36.70;28.54
55077;BME280;40971;44.702;11.030;2022-08-03T12:31:44;101345.06;;;36.86;28.23
55077;BME280;40971;44.702;11.030;2022-08-03T12:34:10;101309.03;;;36.55;27.51
55077;BME280;40971;44.702;11.030;2022-08-03T12:36:35;101321.47;;;36.51;27.21
55077;BME280;40971;44.702;11.030;2022-08-03T12:39:08;101296.47;;;36.66;27.27
55077;BME280;40971;44.702;11.030;2022-08-03T12:41:36;101333.16;;;37.03;27.25
55077;BME280;40971;44.702;11.030;2022-08-03T12:44:03;101331.44;;;36.34;28.94
55077;BME280;40971;44.702;11.030;2022-08-03T12:49:01;101300.06;;;36.31;28.95
55077;BME280;40971;44.702;11.030;2022-08-03T12:51:29;101312.03;;;36.07;27.92
55077;BME280;40971;44.702;11.030;2022-08-03T12:53:56;101325.16;;;36.10;29.01
55077;BME280;40971;44.702;11.030;2022-08-03T12:56:22;101335.19;;;36.21;29.95